This is the latest recevied weather packets stored in our database for station/object W0SS-13. If no packets are shown the sender has not sent any weather packets the latest 10 day(s).
| Time | Temp. | Humidity | Pressure | Rain* | Wind** | Luminosity | Snow |
|---|---|---|---|---|---|---|---|
| 1777555184 | 11.67° C | 78% | 1020.2 hPa | 0 mm | - | 172 W/m² | - |
| 1777554882 | 11.11° C | 78% | 1020.1 hPa | 0 mm | - | 177 W/m² | - |
| 1777554578 | 10.56° C | 79% | 1020 hPa | 0 mm | - | 151 W/m² | - |
| 1777554275 | 10.56° C | 79% | 1020.2 hPa | 0 mm | - | 119 W/m² | - |
| 1777553669 | 10° C | 82% | 1020 hPa | 0 mm | - | 84 W/m² | - |
| 1777553366 | 9.44° C | 83% | 1020 hPa | 0 mm | - | 81 W/m² | - |
| 1777553062 | 8.89° C | 83% | 1020.2 hPa | 0 mm | - | 76 W/m² | - |
| 1777552453 | 7.78° C | 85% | 1020.2 hPa | 0 mm | - | 64 W/m² | - |
| 1777552149 | 7.22° C | 87% | 1019.8 hPa | 0 mm | - | 57 W/m² | - |
| 1777551846 | 6.67° C | 88% | 1019.8 hPa | 0 mm | - | 51 W/m² | - |
| 1777550021 | 5.56° C | 92% | 1019.8 hPa | 0 mm | - | 19 W/m² | - |
| 1777548812 | 5° C | 91% | 1019.8 hPa | 0 mm | - | 7 W/m² | - |
| 1777548509 | 5.56° C | 91% | 1019.8 hPa | 0 mm | - | 5 W/m² | - |
| 1777548206 | 5.56° C | 91% | 1019.6 hPa | 0 mm | - | 3 W/m² | - |
| 1777547902 | 5.56° C | 91% | 1019.6 hPa | 0 mm | - | 1 W/m² | - |
| 1777546690 | 5° C | 91% | 1019.9 hPa | 0 mm | - | 0 W/m² | - |
| 1777546084 | 5.56° C | 91% | 1019.7 hPa | 0 mm | - | 0 W/m² | - |
| 1777545476 | 5.56° C | 91% | 1019.9 hPa | 0 mm | - | 0 W/m² | - |
| 1777545173 | 5.56° C | 91% | 1020 hPa | 0 mm | - | 0 W/m² | - |
| 1777544871 | 5.56° C | 91% | 1019.8 hPa | 0 mm | - | 0 W/m² | - |
| 1777544566 | 5.56° C | 92% | 1019.7 hPa | 0 mm | - | 0 W/m² | - |
| 1777544263 | 5.56° C | 92% | 1020 hPa | 0 mm | - | 0 W/m² | - |
| 1777543657 | 5.56° C | 92% | 1020.1 hPa | 0 mm | - | 0 W/m² | - |
| 1777543048 | 5.56° C | 92% | 1020.2 hPa | 0 mm | - | 0 W/m² | - |
| 1777542745 | 5.56° C | 92% | 1020.1 hPa | 0 mm | - | 0 W/m² | - |
* Rain latest hour (hover to see other rain measurements)
** Current wind speed in m/s (hover to see current wind gust speed)